sensor_id;sensor_type;location;lat;lon;timestamp;P1;durP1;ratioP1;P2;durP2;ratioP2
12052;SDS011;6087;48.982;12.064;2022-12-18T00:00:57;45.40;;;18.30;;
12052;SDS011;6087;48.982;12.064;2022-12-18T00:03:24;36.83;;;18.10;;
12052;SDS011;6087;48.982;12.064;2022-12-18T00:05:52;40.43;;;18.73;;
12052;SDS011;6087;48.982;12.064;2022-12-18T00:08:19;35.13;;;16.83;;
12052;SDS011;6087;48.982;12.064;2022-12-18T00:10:46;38.57;;;17.10;;
12052;SDS011;6087;48.982;12.064;2022-12-18T00:13:13;33.90;;;17.93;;
12052;SDS011;6087;48.982;12.064;2022-12-18T00:15:40;38.37;;;18.13;;
12052;SDS011;6087;48.982;12.064;2022-12-18T00:18:07;37.30;;;18.03;;
12052;SDS011;6087;48.982;12.064;2022-12-18T00:20:35;41.73;;;18.30;;
12052;SDS011;6087;48.982;12.064;2022-12-18T00:23:04;38.53;;;18.37;;
12052;SDS011;6087;48.982;12.064;2022-12-18T00:25:32;32.63;;;16.50;;
12052;SDS011;6087;48.982;12.064;2022-12-18T00:28:00;35.40;;;17.67;;
12052;SDS011;6087;48.982;12.064;2022-12-18T00:30:27;41.53;;;19.37;;
12052;SDS011;6087;48.982;12.064;2022-12-18T00:32:54;39.33;;;17.80;;
12052;SDS011;6087;48.982;12.064;2022-12-18T00:35:21;29.13;;;16.17;;
12052;SDS011;6087;48.982;12.064;2022-12-18T00:37:48;29.33;;;16.10;;
12052;SDS011;6087;48.982;12.064;2022-12-18T00:40:17;36.33;;;17.50;;
12052;SDS011;6087;48.982;12.064;2022-12-18T00:42:44;32.63;;;17.10;;
12052;SDS011;6087;48.982;12.064;2022-12-18T00:45:22;35.63;;;15.93;;
12052;SDS011;6087;48.982;12.064;2022-12-18T00:47:49;35.40;;;15.67;;
12052;SDS011;6087;48.982;12.064;2022-12-18T00:50:16;35.07;;;17.57;;
12052;SDS011;6087;48.982;12.064;2022-12-18T00:52:43;31.17;;;15.43;;
12052;SDS011;6087;48.982;12.064;2022-12-18T00:55:10;35.27;;;16.37;;
12052;SDS011;6087;48.982;12.064;2022-12-18T00:57:41;33.83;;;16.70;;
12052;SDS011;6087;48.982;12.064;2022-12-18T01:00:10;36.93;;;17.70;;
12052;SDS011;6087;48.982;12.064;2022-12-18T01:02:39;37.03;;;17.10;;
12052;SDS011;6087;48.982;12.064;2022-12-18T01:05:06;33.27;;;15.63;;
12052;SDS011;6087;48.982;12.064;2022-12-18T01:07:34;28.17;;;15.40;;
12052;SDS011;6087;48.982;12.064;2022-12-18T01:10:01;35.10;;;15.57;;
12052;SDS011;6087;48.982;12.064;2022-12-18T01:12:29;30.43;;;15.90;;
12052;SDS011;6087;48.982;12.064;2022-12-18T01:14:57;33.40;;;14.90;;
12052;SDS011;6087;48.982;12.064;2022-12-18T01:17:24;32.50;;;16.03;;
12052;SDS011;6087;48.982;12.064;2022-12-18T01:19:51;36.87;;;15.97;;
12052;SDS011;6087;48.982;12.064;2022-12-18T01:22:18;32.10;;;14.10;;
12052;SDS011;6087;48.982;12.064;2022-12-18T01:24:45;32.60;;;15.13;;
12052;SDS011;6087;48.982;12.064;2022-12-18T01:27:12;32.47;;;15.40;;
12052;SDS011;6087;48.982;12.064;2022-12-18T01:29:40;31.37;;;16.13;;
12052;SDS011;6087;48.982;12.064;2022-12-18T01:32:08;34.27;;;16.40;;
12052;SDS011;6087;48.982;12.064;2022-12-18T01:34:35;36.97;;;15.33;;
12052;SDS011;6087;48.982;12.064;2022-12-18T01:37:03;36.03;;;15.00;;
12052;SDS011;6087;48.982;12.064;2022-12-18T01:39:30;31.57;;;14.43;;
12052;SDS011;6087;48.982;12.064;2022-12-18T01:41:58;30.50;;;16.00;;
12052;SDS011;6087;48.982;12.064;2022-12-18T01:47:35;35.63;;;16.90;;
12052;SDS011;6087;48.982;12.064;2022-12-18T01:50:05;35.00;;;16.60;;
12052;SDS011;6087;48.982;12.064;2022-12-18T01:52:35;38.73;;;17.63;;
12052;SDS011;6087;48.982;12.064;2022-12-18T01:55:03;36.70;;;16.87;;
12052;SDS011;6087;48.982;12.064;2022-12-18T01:57:32;37.33;;;16.87;;
12052;SDS011;6087;48.982;12.064;2022-12-18T02:00:00;34.83;;;16.93;;
12052;SDS011;6087;48.982;12.064;2022-12-18T02:02:29;39.33;;;17.93;;
12052;SDS011;6087;48.982;12.064;2022-12-18T02:04:58;35.60;;;16.30;;
12052;SDS011;6087;48.982;12.064;2022-12-18T02:07:29;33.47;;;16.57;;
12052;SDS011;6087;48.982;12.064;2022-12-18T02:10:03;37.73;;;15.57;;
12052;SDS011;6087;48.982;12.064;2022-12-18T02:12:40;34.47;;;16.40;;
12052;SDS011;6087;48.982;12.064;2022-12-18T02:15:13;38.03;;;16.43;;
12052;SDS011;6087;48.982;12.064;2022-12-18T02:17:46;33.60;;;15.87;;
12052;SDS011;6087;48.982;12.064;2022-12-18T02:20:21;33.43;;;17.83;;
12052;SDS011;6087;48.982;12.064;2022-12-18T02:22:58;34.87;;;16.43;;
12052;SDS011;6087;48.982;12.064;2022-12-18T02:25:38;32.27;;;15.83;;
12052;SDS011;6087;48.982;12.064;2022-12-18T02:28:15;33.67;;;16.47;;
12052;SDS011;6087;48.982;12.064;2022-12-18T02:30:46;30.87;;;15.67;;
12052;SDS011;6087;48.982;12.064;2022-12-18T02:33:15;31.40;;;15.53;;
12052;SDS011;6087;48.982;12.064;2022-12-18T02:35:43;32.23;;;16.17;;
12052;SDS011;6087;48.982;12.064;2022-12-18T02:38:11;32.03;;;14.77;;
12052;SDS011;6087;48.982;12.064;2022-12-18T02:40:40;34.70;;;17.37;;
12052;SDS011;6087;48.982;12.064;2022-12-18T02:43:09;29.37;;;15.43;;
12052;SDS011;6087;48.982;12.064;2022-12-18T02:45:47;34.50;;;16.73;;
12052;SDS011;6087;48.982;12.064;2022-12-18T02:48:16;37.30;;;16.67;;
12052;SDS011;6087;48.982;12.064;2022-12-18T02:50:47;37.70;;;16.87;;
12052;SDS011;6087;48.982;12.064;2022-12-18T02:53:26;37.67;;;16.50;;
12052;SDS011;6087;48.982;12.064;2022-12-18T02:55:58;32.43;;;14.73;;
12052;SDS011;6087;48.982;12.064;2022-12-18T02:58:30;27.73;;;13.03;;
12052;SDS011;6087;48.982;12.064;2022-12-18T03:01:06;28.33;;;14.00;;
12052;SDS011;6087;48.982;12.064;2022-12-18T03:03:39;30.37;;;14.13;;
12052;SDS011;6087;48.982;12.064;2022-12-18T03:06:08;22.90;;;12.47;;
12052;SDS011;6087;48.982;12.064;2022-12-18T03:08:41;27.37;;;13.60;;
12052;SDS011;6087;48.982;12.064;2022-12-18T03:11:12;28.43;;;14.00;;
12052;SDS011;6087;48.982;12.064;2022-12-18T03:13:40;27.23;;;13.73;;
12052;SDS011;6087;48.982;12.064;2022-12-18T03:16:14;25.67;;;13.80;;
12052;SDS011;6087;48.982;12.064;2022-12-18T03:18:45;27.53;;;14.17;;
12052;SDS011;6087;48.982;12.064;2022-12-18T03:21:15;31.70;;;13.90;;
12052;SDS011;6087;48.982;12.064;2022-12-18T03:23:48;28.67;;;13.87;;
12052;SDS011;6087;48.982;12.064;2022-12-18T03:26:18;28.10;;;14.83;;
12052;SDS011;6087;48.982;12.064;2022-12-18T03:28:49;26.47;;;14.73;;
12052;SDS011;6087;48.982;12.064;2022-12-18T03:31:21;30.73;;;15.03;;
12052;SDS011;6087;48.982;12.064;2022-12-18T03:33:51;32.20;;;15.20;;
12052;SDS011;6087;48.982;12.064;2022-12-18T03:36:20;30.77;;;14.83;;
12052;SDS011;6087;48.982;12.064;2022-12-18T03:38:47;30.97;;;15.07;;
12052;SDS011;6087;48.982;12.064;2022-12-18T03:41:15;30.63;;;15.17;;
12052;SDS011;6087;48.982;12.064;2022-12-18T03:43:49;29.80;;;13.73;;
12052;SDS011;6087;48.982;12.064;2022-12-18T03:46:23;31.60;;;14.67;;
12052;SDS011;6087;48.982;12.064;2022-12-18T03:48:57;31.50;;;14.70;;
12052;SDS011;6087;48.982;12.064;2022-12-18T03:51:36;36.67;;;14.63;;
12052;SDS011;6087;48.982;12.064;2022-12-18T03:54:08;27.00;;;14.10;;
12052;SDS011;6087;48.982;12.064;2022-12-18T03:56:38;27.83;;;12.73;;
12052;SDS011;6087;48.982;12.064;2022-12-18T03:59:08;25.83;;;14.07;;
12052;SDS011;6087;48.982;12.064;2022-12-18T04:01:42;28.30;;;14.30;;
12052;SDS011;6087;48.982;12.064;2022-12-18T04:04:12;27.87;;;13.27;;
12052;SDS011;6087;48.982;12.064;2022-12-18T04:06:40;22.47;;;12.50;;
12052;SDS011;6087;48.982;12.064;2022-12-18T04:09:09;27.70;;;13.07;;
12052;SDS011;6087;48.982;12.064;2022-12-18T04:11:36;27.70;;;13.43;;
12052;SDS011;6087;48.982;12.064;2022-12-18T04:14:03;27.23;;;12.33;;
12052;SDS011;6087;48.982;12.064;2022-12-18T04:16:31;29.47;;;12.67;;
12052;SDS011;6087;48.982;12.064;2022-12-18T04:18:59;28.87;;;13.17;;
12052;SDS011;6087;48.982;12.064;2022-12-18T04:21:26;27.30;;;12.77;;
12052;SDS011;6087;48.982;12.064;2022-12-18T04:23:53;30.10;;;13.80;;
12052;SDS011;6087;48.982;12.064;2022-12-18T04:26:20;25.37;;;13.07;;
12052;SDS011;6087;48.982;12.064;2022-12-18T04:28:47;26.30;;;12.77;;
12052;SDS011;6087;48.982;12.064;2022-12-18T04:31:14;24.23;;;12.97;;
12052;SDS011;6087;48.982;12.064;2022-12-18T04:33:41;25.30;;;13.03;;
12052;SDS011;6087;48.982;12.064;2022-12-18T04:36:09;22.50;;;12.43;;
12052;SDS011;6087;48.982;12.064;2022-12-18T04:38:37;23.10;;;11.87;;
12052;SDS011;6087;48.982;12.064;2022-12-18T04:41:04;28.03;;;13.17;;
12052;SDS011;6087;48.982;12.064;2022-12-18T04:43:31;28.37;;;13.83;;
12052;SDS011;6087;48.982;12.064;2022-12-18T04:46:02;27.27;;;14.30;;
12052;SDS011;6087;48.982;12.064;2022-12-18T04:48:30;27.97;;;13.47;;
12052;SDS011;6087;48.982;12.064;2022-12-18T04:50:57;27.63;;;14.20;;
12052;SDS011;6087;48.982;12.064;2022-12-18T04:53:25;23.70;;;13.07;;
12052;SDS011;6087;48.982;12.064;2022-12-18T04:56:01;26.97;;;14.23;;
12052;SDS011;6087;48.982;12.064;2022-12-18T04:58:30;26.27;;;12.77;;
12052;SDS011;6087;48.982;12.064;2022-12-18T05:00:57;25.77;;;13.33;;
12052;SDS011;6087;48.982;12.064;2022-12-18T05:03:24;25.27;;;12.90;;
12052;SDS011;6087;48.982;12.064;2022-12-18T05:05:51;26.87;;;12.93;;
12052;SDS011;6087;48.982;12.064;2022-12-18T05:08:18;22.83;;;12.97;;
12052;SDS011;6087;48.982;12.064;2022-12-18T05:10:47;24.50;;;11.73;;
12052;SDS011;6087;48.982;12.064;2022-12-18T05:13:13;23.90;;;12.27;;
12052;SDS011;6087;48.982;12.064;2022-12-18T05:15:40;22.33;;;11.53;;
12052;SDS011;6087;48.982;12.064;2022-12-18T05:18:08;22.00;;;11.77;;
12052;SDS011;6087;48.982;12.064;2022-12-18T05:20:35;22.87;;;11.37;;
12052;SDS011;6087;48.982;12.064;2022-12-18T05:23:02;24.33;;;11.50;;
12052;SDS011;6087;48.982;12.064;2022-12-18T05:25:29;27.63;;;12.57;;
12052;SDS011;6087;48.982;12.064;2022-12-18T05:27:57;22.27;;;11.30;;
12052;SDS011;6087;48.982;12.064;2022-12-18T05:30:24;28.17;;;13.23;;
12052;SDS011;6087;48.982;12.064;2022-12-18T05:32:51;23.20;;;12.90;;
12052;SDS011;6087;48.982;12.064;2022-12-18T05:35:18;26.90;;;13.27;;
12052;SDS011;6087;48.982;12.064;2022-12-18T05:37:45;28.43;;;12.43;;
12052;SDS011;6087;48.982;12.064;2022-12-18T05:40:12;24.37;;;12.37;;
12052;SDS011;6087;48.982;12.064;2022-12-18T05:42:39;32.20;;;14.57;;
12052;SDS011;6087;48.982;12.064;2022-12-18T05:45:08;26.80;;;12.60;;
12052;SDS011;6087;48.982;12.064;2022-12-18T05:47:35;27.07;;;14.10;;
12052;SDS011;6087;48.982;12.064;2022-12-18T05:50:03;25.70;;;12.97;;
12052;SDS011;6087;48.982;12.064;2022-12-18T05:52:30;29.07;;;13.13;;
12052;SDS011;6087;48.982;12.064;2022-12-18T05:54:57;29.00;;;12.97;;
12052;SDS011;6087;48.982;12.064;2022-12-18T05:57:25;28.47;;;13.37;;
12052;SDS011;6087;48.982;12.064;2022-12-18T05:59:52;31.97;;;13.37;;
12052;SDS011;6087;48.982;12.064;2022-12-18T06:02:20;32.47;;;13.77;;
12052;SDS011;6087;48.982;12.064;2022-12-18T06:04:47;26.40;;;13.20;;
12052;SDS011;6087;48.982;12.064;2022-12-18T06:07:14;24.37;;;11.87;;
12052;SDS011;6087;48.982;12.064;2022-12-18T06:09:41;26.43;;;12.97;;
12052;SDS011;6087;48.982;12.064;2022-12-18T06:12:08;27.57;;;13.73;;
12052;SDS011;6087;48.982;12.064;2022-12-18T06:14:35;26.10;;;13.77;;
12052;SDS011;6087;48.982;12.064;2022-12-18T06:17:03;27.67;;;13.77;;
12052;SDS011;6087;48.982;12.064;2022-12-18T06:19:31;34.07;;;15.43;;
12052;SDS011;6087;48.982;12.064;2022-12-18T06:21:58;34.93;;;16.27;;
12052;SDS011;6087;48.982;12.064;2022-12-18T06:24:25;27.80;;;13.07;;
12052;SDS011;6087;48.982;12.064;2022-12-18T06:26:52;25.70;;;13.67;;
12052;SDS011;6087;48.982;12.064;2022-12-18T06:29:19;30.00;;;13.40;;
12052;SDS011;6087;48.982;12.064;2022-12-18T06:31:46;28.50;;;13.20;;
12052;SDS011;6087;48.982;12.064;2022-12-18T06:34:13;29.07;;;13.97;;
12052;SDS011;6087;48.982;12.064;2022-12-18T06:36:42;27.43;;;13.87;;
12052;SDS011;6087;48.982;12.064;2022-12-18T06:39:09;29.13;;;13.53;;
12052;SDS011;6087;48.982;12.064;2022-12-18T06:41:36;32.70;;;14.50;;
12052;SDS011;6087;48.982;12.064;2022-12-18T06:44:03;29.73;;;13.53;;
12052;SDS011;6087;48.982;12.064;2022-12-18T06:46:30;35.73;;;15.30;;
12052;SDS011;6087;48.982;12.064;2022-12-18T06:48:58;32.03;;;14.27;;
12052;SDS011;6087;48.982;12.064;2022-12-18T06:51:25;33.50;;;15.60;;
12052;SDS011;6087;48.982;12.064;2022-12-18T06:53:53;33.13;;;14.23;;
12052;SDS011;6087;48.982;12.064;2022-12-18T06:56:20;31.33;;;14.37;;
12052;SDS011;6087;48.982;12.064;2022-12-18T06:58:48;30.60;;;14.23;;
12052;SDS011;6087;48.982;12.064;2022-12-18T07:01:14;31.70;;;14.00;;
12052;SDS011;6087;48.982;12.064;2022-12-18T07:03:42;31.90;;;14.20;;
12052;SDS011;6087;48.982;12.064;2022-12-18T07:06:13;28.70;;;14.93;;
12052;SDS011;6087;48.982;12.064;2022-12-18T07:08:41;28.57;;;14.00;;
12052;SDS011;6087;48.982;12.064;2022-12-18T07:11:09;28.97;;;14.20;;
12052;SDS011;6087;48.982;12.064;2022-12-18T07:13:36;30.20;;;14.27;;
12052;SDS011;6087;48.982;12.064;2022-12-18T07:16:04;34.27;;;14.10;;
12052;SDS011;6087;48.982;12.064;2022-12-18T07:18:33;30.27;;;13.47;;
12052;SDS011;6087;48.982;12.064;2022-12-18T07:21:02;26.13;;;12.87;;
12052;SDS011;6087;48.982;12.064;2022-12-18T07:23:31;33.53;;;13.17;;
12052;SDS011;6087;48.982;12.064;2022-12-18T07:26:00;31.70;;;13.50;;
12052;SDS011;6087;48.982;12.064;2022-12-18T07:28:29;28.77;;;13.60;;
12052;SDS011;6087;48.982;12.064;2022-12-18T07:30:57;32.23;;;14.10;;
12052;SDS011;6087;48.982;12.064;2022-12-18T07:33:25;31.90;;;14.40;;
12052;SDS011;6087;48.982;12.064;2022-12-18T07:35:52;32.17;;;14.93;;
12052;SDS011;6087;48.982;12.064;2022-12-18T07:38:19;36.13;;;14.77;;
12052;SDS011;6087;48.982;12.064;2022-12-18T07:40:47;33.03;;;15.50;;
12052;SDS011;6087;48.982;12.064;2022-12-18T07:43:14;35.30;;;16.00;;
12052;SDS011;6087;48.982;12.064;2022-12-18T07:45:43;32.43;;;15.73;;
12052;SDS011;6087;48.982;12.064;2022-12-18T07:48:10;37.00;;;16.10;;
12052;SDS011;6087;48.982;12.064;2022-12-18T07:50:37;33.73;;;15.47;;
12052;SDS011;6087;48.982;12.064;2022-12-18T07:53:04;29.57;;;14.23;;
12052;SDS011;6087;48.982;12.064;2022-12-18T07:55:31;31.60;;;15.47;;
12052;SDS011;6087;48.982;12.064;2022-12-18T07:58:00;31.77;;;14.23;;
12052;SDS011;6087;48.982;12.064;2022-12-18T08:00:28;30.57;;;15.13;;
12052;SDS011;6087;48.982;12.064;2022-12-18T08:02:57;27.53;;;13.93;;
12052;SDS011;6087;48.982;12.064;2022-12-18T08:05:24;34.47;;;15.87;;
12052;SDS011;6087;48.982;12.064;2022-12-18T08:07:51;28.77;;;14.53;;
12052;SDS011;6087;48.982;12.064;2022-12-18T08:10:19;27.57;;;14.23;;
12052;SDS011;6087;48.982;12.064;2022-12-18T08:12:48;31.93;;;14.17;;
12052;SDS011;6087;48.982;12.064;2022-12-18T08:15:15;29.87;;;13.73;;
12052;SDS011;6087;48.982;12.064;2022-12-18T08:17:42;28.77;;;13.37;;
12052;SDS011;6087;48.982;12.064;2022-12-18T08:20:11;30.37;;;13.10;;
12052;SDS011;6087;48.982;12.064;2022-12-18T08:22:40;24.43;;;12.60;;
12052;SDS011;6087;48.982;12.064;2022-12-18T08:25:07;27.63;;;12.67;;
12052;SDS011;6087;48.982;12.064;2022-12-18T08:27:35;26.17;;;12.80;;
12052;SDS011;6087;48.982;12.064;2022-12-18T08:30:02;27.67;;;13.50;;
12052;SDS011;6087;48.982;12.064;2022-12-18T08:32:30;24.80;;;12.80;;
12052;SDS011;6087;48.982;12.064;2022-12-18T08:34:57;33.27;;;14.57;;
12052;SDS011;6087;48.982;12.064;2022-12-18T08:37:26;32.40;;;14.47;;
12052;SDS011;6087;48.982;12.064;2022-12-18T08:39:53;31.87;;;13.87;;
12052;SDS011;6087;48.982;12.064;2022-12-18T08:42:20;27.13;;;13.97;;
12052;SDS011;6087;48.982;12.064;2022-12-18T08:45:04;26.53;;;13.00;;
12052;SDS011;6087;48.982;12.064;2022-12-18T08:47:32;29.23;;;14.37;;
12052;SDS011;6087;48.982;12.064;2022-12-18T08:49:59;29.50;;;14.47;;
12052;SDS011;6087;48.982;12.064;2022-12-18T08:52:27;29.00;;;13.90;;
12052;SDS011;6087;48.982;12.064;2022-12-18T08:54:54;26.57;;;12.93;;
12052;SDS011;6087;48.982;12.064;2022-12-18T08:57:21;26.83;;;13.37;;
12052;SDS011;6087;48.982;12.064;2022-12-18T08:59:48;30.60;;;15.30;;
12052;SDS011;6087;48.982;12.064;2022-12-18T09:02:15;26.33;;;13.67;;
12052;SDS011;6087;48.982;12.064;2022-12-18T09:04:42;29.10;;;13.50;;
12052;SDS011;6087;48.982;12.064;2022-12-18T09:07:09;31.37;;;14.10;;
12052;SDS011;6087;48.982;12.064;2022-12-18T09:09:38;31.40;;;13.87;;
12052;SDS011;6087;48.982;12.064;2022-12-18T09:12:05;26.67;;;12.73;;
12052;SDS011;6087;48.982;12.064;2022-12-18T09:14:32;25.80;;;13.07;;
12052;SDS011;6087;48.982;12.064;2022-12-18T09:16:59;25.47;;;12.63;;
12052;SDS011;6087;48.982;12.064;2022-12-18T09:19:26;23.07;;;12.53;;
12052;SDS011;6087;48.982;12.064;2022-12-18T09:21:53;26.23;;;12.13;;
12052;SDS011;6087;48.982;12.064;2022-12-18T09:24:20;24.87;;;12.90;;
12052;SDS011;6087;48.982;12.064;2022-12-18T09:26:48;25.20;;;12.33;;
12052;SDS011;6087;48.982;12.064;2022-12-18T09:29:19;23.17;;;11.70;;
12052;SDS011;6087;48.982;12.064;2022-12-18T09:31:45;29.80;;;12.63;;
12052;SDS011;6087;48.982;12.064;2022-12-18T09:34:13;30.47;;;13.60;;
12052;SDS011;6087;48.982;12.064;2022-12-18T09:36:40;24.23;;;12.43;;
12052;SDS011;6087;48.982;12.064;2022-12-18T09:39:07;25.80;;;12.47;;
12052;SDS011;6087;48.982;12.064;2022-12-18T09:41:41;24.43;;;12.63;;
12052;SDS011;6087;48.982;12.064;2022-12-18T09:44:14;26.57;;;13.20;;
12052;SDS011;6087;48.982;12.064;2022-12-18T09:46:47;22.50;;;11.83;;
12052;SDS011;6087;48.982;12.064;2022-12-18T09:49:18;24.03;;;12.13;;
12052;SDS011;6087;48.982;12.064;2022-12-18T09:51:49;19.87;;;11.10;;
12052;SDS011;6087;48.982;12.064;2022-12-18T09:54:21;22.97;;;12.00;;
12052;SDS011;6087;48.982;12.064;2022-12-18T09:56:52;21.47;;;11.50;;
12052;SDS011;6087;48.982;12.064;2022-12-18T09:59:22;21.90;;;10.97;;
12052;SDS011;6087;48.982;12.064;2022-12-18T10:01:51;20.77;;;10.40;;
12052;SDS011;6087;48.982;12.064;2022-12-18T10:04:18;27.20;;;12.33;;
12052;SDS011;6087;48.982;12.064;2022-12-18T10:06:46;26.00;;;11.33;;
12052;SDS011;6087;48.982;12.064;2022-12-18T10:09:20;24.23;;;11.73;;
12052;SDS011;6087;48.982;12.064;2022-12-18T10:11:56;24.33;;;13.10;;
12052;SDS011;6087;48.982;12.064;2022-12-18T10:14:34;23.57;;;12.43;;
12052;SDS011;6087;48.982;12.064;2022-12-18T10:17:07;23.43;;;11.90;;
12052;SDS011;6087;48.982;12.064;2022-12-18T10:19:45;26.33;;;13.67;;
12052;SDS011;6087;48.982;12.064;2022-12-18T10:22:30;21.13;;;11.23;;
12052;SDS011;6087;48.982;12.064;2022-12-18T10:25:15;23.27;;;11.70;;
12052;SDS011;6087;48.982;12.064;2022-12-18T10:27:48;22.77;;;11.90;;
12052;SDS011;6087;48.982;12.064;2022-12-18T10:30:19;22.97;;;11.73;;
12052;SDS011;6087;48.982;12.064;2022-12-18T10:32:47;23.27;;;12.33;;
12052;SDS011;6087;48.982;12.064;2022-12-18T10:35:16;27.03;;;14.57;;
12052;SDS011;6087;48.982;12.064;2022-12-18T10:37:59;32.33;;;13.83;;
12052;SDS011;6087;48.982;12.064;2022-12-18T10:40:31;28.23;;;13.63;;
12052;SDS011;6087;48.982;12.064;2022-12-18T10:43:09;21.50;;;12.17;;
12052;SDS011;6087;48.982;12.064;2022-12-18T10:45:39;26.70;;;12.83;;
12052;SDS011;6087;48.982;12.064;2022-12-18T10:48:17;26.37;;;12.70;;
12052;SDS011;6087;48.982;12.064;2022-12-18T10:50:46;25.90;;;12.80;;
12052;SDS011;6087;48.982;12.064;2022-12-18T10:53:17;26.87;;;13.03;;
12052;SDS011;6087;48.982;12.064;2022-12-18T10:55:47;27.20;;;13.63;;
12052;SDS011;6087;48.982;12.064;2022-12-18T10:58:23;22.97;;;12.63;;
12052;SDS011;6087;48.982;12.064;2022-12-18T11:03:41;27.57;;;12.73;;
12052;SDS011;6087;48.982;12.064;2022-12-18T11:06:10;25.23;;;12.83;;
12052;SDS011;6087;48.982;12.064;2022-12-18T11:08:39;25.07;;;12.97;;
12052;SDS011;6087;48.982;12.064;2022-12-18T11:11:07;25.70;;;12.87;;
12052;SDS011;6087;48.982;12.064;2022-12-18T11:13:48;26.80;;;13.20;;
12052;SDS011;6087;48.982;12.064;2022-12-18T11:16:26;23.97;;;12.60;;
12052;SDS011;6087;48.982;12.064;2022-12-18T11:18:55;32.73;;;14.50;;
12052;SDS011;6087;48.982;12.064;2022-12-18T11:21:39;29.30;;;14.63;;
12052;SDS011;6087;48.982;12.064;2022-12-18T11:24:08;27.33;;;13.97;;
12052;SDS011;6087;48.982;12.064;2022-12-18T11:26:46;26.40;;;13.77;;
12052;SDS011;6087;48.982;12.064;2022-12-18T11:29:16;30.53;;;14.07;;
12052;SDS011;6087;48.982;12.064;2022-12-18T11:31:45;25.73;;;12.77;;
12052;SDS011;6087;48.982;12.064;2022-12-18T11:34:13;26.27;;;13.67;;
12052;SDS011;6087;48.982;12.064;2022-12-18T11:36:49;29.27;;;13.53;;
12052;SDS011;6087;48.982;12.064;2022-12-18T11:39:17;33.30;;;14.20;;
12052;SDS011;6087;48.982;12.064;2022-12-18T11:41:48;23.83;;;12.33;;
12052;SDS011;6087;48.982;12.064;2022-12-18T11:44:38;27.30;;;13.50;;
12052;SDS011;6087;48.982;12.064;2022-12-18T11:47:11;26.20;;;14.27;;
12052;SDS011;6087;48.982;12.064;2022-12-18T11:49:46;24.30;;;11.90;;
12052;SDS011;6087;48.982;12.064;2022-12-18T11:52:16;30.70;;;14.30;;
12052;SDS011;6087;48.982;12.064;2022-12-18T11:54:53;27.50;;;14.03;;
12052;SDS011;6087;48.982;12.064;2022-12-18T11:57:28;28.33;;;14.40;;
12052;SDS011;6087;48.982;12.064;2022-12-18T12:00:03;26.53;;;12.90;;
12052;SDS011;6087;48.982;12.064;2022-12-18T12:02:48;28.47;;;15.13;;
12052;SDS011;6087;48.982;12.064;2022-12-18T12:05:34;27.73;;;14.30;;
12052;SDS011;6087;48.982;12.064;2022-12-18T12:08:11;30.27;;;15.37;;
12052;SDS011;6087;48.982;12.064;2022-12-18T12:10:50;28.93;;;14.07;;
12052;SDS011;6087;48.982;12.064;2022-12-18T12:13:29;25.27;;;14.43;;
12052;SDS011;6087;48.982;12.064;2022-12-18T12:16:08;29.97;;;14.53;;
12052;SDS011;6087;48.982;12.064;2022-12-18T12:18:47;29.07;;;14.00;;
12052;SDS011;6087;48.982;12.064;2022-12-18T12:21:33;26.40;;;13.90;;
12052;SDS011;6087;48.982;12.064;2022-12-18T12:24:09;27.83;;;13.83;;
12052;SDS011;6087;48.982;12.064;2022-12-18T12:26:49;31.63;;;15.10;;
12052;SDS011;6087;48.982;12.064;2022-12-18T12:29:26;31.17;;;15.40;;
12052;SDS011;6087;48.982;12.064;2022-12-18T12:32:04;35.40;;;15.70;;
12052;SDS011;6087;48.982;12.064;2022-12-18T12:34:42;27.07;;;14.13;;
12052;SDS011;6087;48.982;12.064;2022-12-18T12:37:19;31.13;;;14.63;;
12052;SDS011;6087;48.982;12.064;2022-12-18T12:39:55;28.83;;;14.27;;
12052;SDS011;6087;48.982;12.064;2022-12-18T12:42:31;29.73;;;14.43;;
12052;SDS011;6087;48.982;12.064;2022-12-18T12:45:20;26.00;;;14.17;;
12052;SDS011;6087;48.982;12.064;2022-12-18T12:47:52;27.77;;;14.50;;
12052;SDS011;6087;48.982;12.064;2022-12-18T12:50:22;31.20;;;15.13;;
12052;SDS011;6087;48.982;12.064;2022-12-18T12:52:50;27.27;;;14.57;;
12052;SDS011;6087;48.982;12.064;2022-12-18T12:55:21;27.87;;;14.57;;
12052;SDS011;6087;48.982;12.064;2022-12-18T12:57:53;26.83;;;14.03;;
12052;SDS011;6087;48.982;12.064;2022-12-18T13:00:24;27.63;;;14.77;;
12052;SDS011;6087;48.982;12.064;2022-12-18T13:02:54;29.67;;;13.47;;
12052;SDS011;6087;48.982;12.064;2022-12-18T13:05:29;28.57;;;14.40;;
12052;SDS011;6087;48.982;12.064;2022-12-18T13:08:04;27.63;;;13.83;;
12052;SDS011;6087;48.982;12.064;2022-12-18T13:10:34;27.37;;;14.63;;
12052;SDS011;6087;48.982;12.064;2022-12-18T13:13:03;30.90;;;14.60;;
12052;SDS011;6087;48.982;12.064;2022-12-18T13:15:33;25.20;;;15.33;;
12052;SDS011;6087;48.982;12.064;2022-12-18T13:18:13;23.73;;;13.33;;
12052;SDS011;6087;48.982;12.064;2022-12-18T13:20:45;26.13;;;14.70;;
12052;SDS011;6087;48.982;12.064;2022-12-18T13:23:25;28.07;;;15.50;;
12052;SDS011;6087;48.982;12.064;2022-12-18T13:25:54;28.57;;;14.47;;
12052;SDS011;6087;48.982;12.064;2022-12-18T13:28:23;26.43;;;14.83;;
12052;SDS011;6087;48.982;12.064;2022-12-18T13:34:18;25.23;;;13.80;;
12052;SDS011;6087;48.982;12.064;2022-12-18T13:36:47;25.97;;;14.17;;
12052;SDS011;6087;48.982;12.064;2022-12-18T13:39:20;26.27;;;14.40;;
12052;SDS011;6087;48.982;12.064;2022-12-18T13:41:50;30.30;;;14.43;;
12052;SDS011;6087;48.982;12.064;2022-12-18T13:44:24;25.00;;;13.37;;
12052;SDS011;6087;48.982;12.064;2022-12-18T13:46:57;28.87;;;14.33;;
12052;SDS011;6087;48.982;12.064;2022-12-18T13:49:25;29.60;;;15.33;;
12052;SDS011;6087;48.982;12.064;2022-12-18T13:51:58;29.50;;;15.77;;
12052;SDS011;6087;48.982;12.064;2022-12-18T13:54:28;26.57;;;14.37;;
12052;SDS011;6087;48.982;12.064;2022-12-18T13:57:01;26.53;;;14.03;;
12052;SDS011;6087;48.982;12.064;2022-12-18T13:59:33;24.50;;;12.67;;
12052;SDS011;6087;48.982;12.064;2022-12-18T14:02:07;27.37;;;13.07;;
12052;SDS011;6087;48.982;12.064;2022-12-18T14:04:39;26.30;;;14.20;;
12052;SDS011;6087;48.982;12.064;2022-12-18T14:07:10;27.97;;;14.47;;
12052;SDS011;6087;48.982;12.064;2022-12-18T14:09:40;25.47;;;14.60;;
12052;SDS011;6087;48.982;12.064;2022-12-18T14:12:14;30.07;;;13.93;;
12052;SDS011;6087;48.982;12.064;2022-12-18T14:15:02;26.07;;;14.33;;
12052;SDS011;6087;48.982;12.064;2022-12-18T14:17:32;23.40;;;13.50;;
12052;SDS011;6087;48.982;12.064;2022-12-18T14:19:59;24.80;;;14.23;;
12052;SDS011;6087;48.982;12.064;2022-12-18T14:22:44;25.57;;;14.23;;
12052;SDS011;6087;48.982;12.064;2022-12-18T14:25:16;26.57;;;13.80;;
12052;SDS011;6087;48.982;12.064;2022-12-18T14:27:46;30.93;;;14.93;;
12052;SDS011;6087;48.982;12.064;2022-12-18T14:30:24;29.67;;;14.63;;
12052;SDS011;6087;48.982;12.064;2022-12-18T14:32:59;28.93;;;15.23;;
12052;SDS011;6087;48.982;12.064;2022-12-18T14:35:30;26.23;;;14.43;;
12052;SDS011;6087;48.982;12.064;2022-12-18T14:38:10;31.10;;;14.00;;
12052;SDS011;6087;48.982;12.064;2022-12-18T14:40:47;27.10;;;13.83;;
12052;SDS011;6087;48.982;12.064;2022-12-18T14:43:17;27.87;;;15.13;;
12052;SDS011;6087;48.982;12.064;2022-12-18T14:45:44;30.83;;;14.67;;
12052;SDS011;6087;48.982;12.064;2022-12-18T14:48:14;30.47;;;15.20;;